sensor_id;sensor_type;location;lat;lon;timestamp;P1;durP1;ratioP1;P2;durP2;ratioP2
59310;SDS011;45078;51.654;21.250;2023-03-12T00:01:33;6.72;;;3.22;;
59310;SDS011;45078;51.654;21.250;2023-03-12T00:04:03;4.15;;;3.05;;
59310;SDS011;45078;51.654;21.250;2023-03-12T00:06:29;4.97;;;3.25;;
59310;SDS011;45078;51.654;21.250;2023-03-12T00:08:55;4.53;;;2.90;;
59310;SDS011;45078;51.654;21.250;2023-03-12T00:11:21;5.68;;;3.45;;
59310;SDS011;45078;51.654;21.250;2023-03-12T00:13:50;6.20;;;4.03;;
59310;SDS011;45078;51.654;21.250;2023-03-12T00:16:17;5.97;;;2.78;;
59310;SDS011;45078;51.654;21.250;2023-03-12T00:18:46;8.43;;;3.97;;
59310;SDS011;45078;51.654;21.250;2023-03-12T00:21:13;12.63;;;4.57;;
59310;SDS011;45078;51.654;21.250;2023-03-12T00:23:39;3.58;;;2.88;;
59310;SDS011;45078;51.654;21.250;2023-03-12T00:26:06;8.43;;;4.45;;
59310;SDS011;45078;51.654;21.250;2023-03-12T00:28:35;6.40;;;4.25;;
59310;SDS011;45078;51.654;21.250;2023-03-12T00:31:23;7.90;;;4.57;;
59310;SDS011;45078;51.654;21.250;2023-03-12T00:33:51;7.75;;;3.90;;
59310;SDS011;45078;51.654;21.250;2023-03-12T00:36:18;8.27;;;4.70;;
59310;SDS011;45078;51.654;21.250;2023-03-12T00:38:45;4.13;;;2.95;;
59310;SDS011;45078;51.654;21.250;2023-03-12T00:41:11;9.07;;;4.40;;
59310;SDS011;45078;51.654;21.250;2023-03-12T00:43:37;8.35;;;3.88;;
59310;SDS011;45078;51.654;21.250;2023-03-12T00:46:03;8.35;;;4.72;;
59310;SDS011;45078;51.654;21.250;2023-03-12T00:48:29;7.30;;;4.68;;
59310;SDS011;45078;51.654;21.250;2023-03-12T00:50:55;6.55;;;4.35;;
59310;SDS011;45078;51.654;21.250;2023-03-12T00:53:20;11.60;;;3.70;;
59310;SDS011;45078;51.654;21.250;2023-03-12T00:55:46;6.35;;;4.07;;
59310;SDS011;45078;51.654;21.250;2023-03-12T00:58:12;9.48;;;4.72;;
59310;SDS011;45078;51.654;21.250;2023-03-12T01:00:37;5.53;;;3.97;;
59310;SDS011;45078;51.654;21.250;2023-03-12T01:03:03;12.50;;;5.55;;
59310;SDS011;45078;51.654;21.250;2023-03-12T01:05:29;1.92;;;1.75;;
59310;SDS011;45078;51.654;21.250;2023-03-12T01:07:55;7.45;;;4.10;;
59310;SDS011;45078;51.654;21.250;2023-03-12T01:10:22;6.80;;;4.13;;
59310;SDS011;45078;51.654;21.250;2023-03-12T01:12:47;5.00;;;3.25;;
59310;SDS011;45078;51.654;21.250;2023-03-12T01:15:14;6.65;;;4.22;;
59310;SDS011;45078;51.654;21.250;2023-03-12T01:17:41;6.55;;;4.35;;
59310;SDS011;45078;51.654;21.250;2023-03-12T01:20:10;8.77;;;4.75;;
59310;SDS011;45078;51.654;21.250;2023-03-12T01:22:37;8.23;;;4.13;;
59310;SDS011;45078;51.654;21.250;2023-03-12T01:25:03;8.70;;;4.75;;
59310;SDS011;45078;51.654;21.250;2023-03-12T01:27:29;7.15;;;3.78;;
59310;SDS011;45078;51.654;21.250;2023-03-12T01:29:54;10.20;;;4.75;;
59310;SDS011;45078;51.654;21.250;2023-03-12T01:32:20;8.05;;;4.53;;
59310;SDS011;45078;51.654;21.250;2023-03-12T01:34:46;12.85;;;4.78;;
59310;SDS011;45078;51.654;21.250;2023-03-12T01:37:12;9.23;;;4.45;;
59310;SDS011;45078;51.654;21.250;2023-03-12T01:39:37;9.63;;;4.60;;
59310;SDS011;45078;51.654;21.250;2023-03-12T01:42:03;11.07;;;6.00;;
59310;SDS011;45078;51.654;21.250;2023-03-12T01:44:29;7.38;;;4.38;;
59310;SDS011;45078;51.654;21.250;2023-03-12T01:46:55;7.65;;;4.88;;
59310;SDS011;45078;51.654;21.250;2023-03-12T01:49:25;4.60;;;3.50;;
59310;SDS011;45078;51.654;21.250;2023-03-12T01:54:47;9.48;;;4.53;;
59310;SDS011;45078;51.654;21.250;2023-03-12T01:57:15;10.25;;;4.47;;
59310;SDS011;45078;51.654;21.250;2023-03-12T01:59:45;6.43;;;3.70;;
59310;SDS011;45078;51.654;21.250;2023-03-12T02:02:21;5.55;;;3.35;;
59310;SDS011;45078;51.654;21.250;2023-03-12T02:04:51;5.88;;;3.75;;
59310;SDS011;45078;51.654;21.250;2023-03-12T02:07:27;3.80;;;2.83;;
59310;SDS011;45078;51.654;21.250;2023-03-12T02:09:53;7.22;;;3.85;;
59310;SDS011;45078;51.654;21.250;2023-03-12T02:12:19;7.57;;;4.18;;
59310;SDS011;45078;51.654;21.250;2023-03-12T02:14:44;5.72;;;2.47;;
59310;SDS011;45078;51.654;21.250;2023-03-12T02:17:10;6.07;;;2.83;;
59310;SDS011;45078;51.654;21.250;2023-03-12T02:22:35;5.57;;;3.80;;
59310;SDS011;45078;51.654;21.250;2023-03-12T02:25:03;7.80;;;2.97;;
59310;SDS011;45078;51.654;21.250;2023-03-12T02:27:49;3.08;;;2.35;;
59310;SDS011;45078;51.654;21.250;2023-03-12T02:30:15;3.97;;;2.55;;
59310;SDS011;45078;51.654;21.250;2023-03-12T02:32:43;8.32;;;3.67;;
59310;SDS011;45078;51.654;21.250;2023-03-12T02:35:10;6.65;;;3.72;;
59310;SDS011;45078;51.654;21.250;2023-03-12T02:37:51;6.80;;;3.78;;
59310;SDS011;45078;51.654;21.250;2023-03-12T02:42:50;7.85;;;4.03;;
59310;SDS011;45078;51.654;21.250;2023-03-12T02:45:17;8.73;;;5.03;;
59310;SDS011;45078;51.654;21.250;2023-03-12T02:47:43;8.38;;;4.57;;
59310;SDS011;45078;51.654;21.250;2023-03-12T02:50:09;7.78;;;4.57;;
59310;SDS011;45078;51.654;21.250;2023-03-12T02:52:35;8.10;;;4.78;;
59310;SDS011;45078;51.654;21.250;2023-03-12T02:55:02;7.60;;;4.70;;
59310;SDS011;45078;51.654;21.250;2023-03-12T02:57:29;11.07;;;4.43;;
59310;SDS011;45078;51.654;21.250;2023-03-12T02:59:55;10.65;;;5.13;;
59310;SDS011;45078;51.654;21.250;2023-03-12T03:02:21;6.53;;;4.30;;
59310;SDS011;45078;51.654;21.250;2023-03-12T03:04:47;12.35;;;4.43;;
59310;SDS011;45078;51.654;21.250;2023-03-12T03:07:13;9.70;;;5.50;;
59310;SDS011;45078;51.654;21.250;2023-03-12T03:09:39;7.00;;;4.20;;
59310;SDS011;45078;51.654;21.250;2023-03-12T03:12:04;8.63;;;4.53;;
59310;SDS011;45078;51.654;21.250;2023-03-12T03:14:31;6.38;;;3.65;;
59310;SDS011;45078;51.654;21.250;2023-03-12T03:16:56;7.57;;;4.75;;
59310;SDS011;45078;51.654;21.250;2023-03-12T03:19:22;7.85;;;4.72;;
59310;SDS011;45078;51.654;21.250;2023-03-12T03:21:48;9.77;;;5.65;;
59310;SDS011;45078;51.654;21.250;2023-03-12T03:24:14;5.25;;;3.97;;
59310;SDS011;45078;51.654;21.250;2023-03-12T03:26:40;5.38;;;3.58;;
59310;SDS011;45078;51.654;21.250;2023-03-12T03:29:06;9.60;;;4.97;;
59310;SDS011;45078;51.654;21.250;2023-03-12T03:31:32;12.13;;;5.40;;
59310;SDS011;45078;51.654;21.250;2023-03-12T03:33:58;6.00;;;4.75;;
59310;SDS011;45078;51.654;21.250;2023-03-12T03:36:24;9.90;;;2.88;;
59310;SDS011;45078;51.654;21.250;2023-03-12T03:38:49;2.92;;;2.20;;
59310;SDS011;45078;51.654;21.250;2023-03-12T03:41:16;6.35;;;3.25;;
59310;SDS011;45078;51.654;21.250;2023-03-12T03:43:43;12.13;;;6.35;;
59310;SDS011;45078;51.654;21.250;2023-03-12T03:46:09;12.50;;;5.70;;
59310;SDS011;45078;51.654;21.250;2023-03-12T03:48:36;6.47;;;4.13;;
59310;SDS011;45078;51.654;21.250;2023-03-12T03:51:03;8.27;;;4.07;;
59310;SDS011;45078;51.654;21.250;2023-03-12T03:53:30;4.88;;;3.63;;
59310;SDS011;45078;51.654;21.250;2023-03-12T03:55:57;6.80;;;3.72;;
59310;SDS011;45078;51.654;21.250;2023-03-12T03:58:23;5.05;;;3.55;;
59310;SDS011;45078;51.654;21.250;2023-03-12T04:00:48;9.30;;;4.10;;
59310;SDS011;45078;51.654;21.250;2023-03-12T04:03:14;11.77;;;6.30;;
59310;SDS011;45078;51.654;21.250;2023-03-12T04:05:40;10.43;;;3.10;;
59310;SDS011;45078;51.654;21.250;2023-03-12T04:08:09;9.65;;;4.65;;
59310;SDS011;45078;51.654;21.250;2023-03-12T04:10:36;9.10;;;4.80;;
59310;SDS011;45078;51.654;21.250;2023-03-12T04:13:02;9.40;;;5.10;;
59310;SDS011;45078;51.654;21.250;2023-03-12T04:15:27;7.50;;;4.47;;
59310;SDS011;45078;51.654;21.250;2023-03-12T04:17:53;8.38;;;4.85;;
59310;SDS011;45078;51.654;21.250;2023-03-12T04:20:19;6.10;;;4.15;;
59310;SDS011;45078;51.654;21.250;2023-03-12T04:22:45;5.82;;;3.60;;
59310;SDS011;45078;51.654;21.250;2023-03-12T04:25:10;11.68;;;4.30;;
59310;SDS011;45078;51.654;21.250;2023-03-12T04:27:36;8.60;;;4.45;;
59310;SDS011;45078;51.654;21.250;2023-03-12T04:30:02;11.75;;;5.68;;
59310;SDS011;45078;51.654;21.250;2023-03-12T04:32:28;9.20;;;5.38;;
59310;SDS011;45078;51.654;21.250;2023-03-12T04:34:54;17.30;;;4.90;;
59310;SDS011;45078;51.654;21.250;2023-03-12T04:37:20;9.45;;;5.40;;
59310;SDS011;45078;51.654;21.250;2023-03-12T04:39:46;9.75;;;5.45;;
59310;SDS011;45078;51.654;21.250;2023-03-12T04:42:12;8.07;;;5.63;;
59310;SDS011;45078;51.654;21.250;2023-03-12T04:44:38;11.23;;;5.28;;
59310;SDS011;45078;51.654;21.250;2023-03-12T04:47:05;6.05;;;3.83;;
59310;SDS011;45078;51.654;21.250;2023-03-12T04:49:30;7.68;;;4.70;;
59310;SDS011;45078;51.654;21.250;2023-03-12T04:51:56;6.93;;;4.22;;
59310;SDS011;45078;51.654;21.250;2023-03-12T04:54:22;6.05;;;4.03;;
59310;SDS011;45078;51.654;21.250;2023-03-12T04:56:48;3.85;;;2.95;;
59310;SDS011;45078;51.654;21.250;2023-03-12T04:59:14;5.22;;;4.05;;
59310;SDS011;45078;51.654;21.250;2023-03-12T05:01:40;6.47;;;3.78;;
59310;SDS011;45078;51.654;21.250;2023-03-12T05:04:07;5.40;;;3.80;;
59310;SDS011;45078;51.654;21.250;2023-03-12T05:06:33;8.23;;;4.07;;
59310;SDS011;45078;51.654;21.250;2023-03-12T05:08:59;6.05;;;4.18;;
59310;SDS011;45078;51.654;21.250;2023-03-12T05:11:25;8.10;;;4.75;;
59310;SDS011;45078;51.654;21.250;2023-03-12T05:13:50;7.05;;;3.92;;
59310;SDS011;45078;51.654;21.250;2023-03-12T05:16:16;9.88;;;5.05;;
59310;SDS011;45078;51.654;21.250;2023-03-12T05:18:42;9.07;;;5.38;;
59310;SDS011;45078;51.654;21.250;2023-03-12T05:21:13;13.02;;;5.45;;
59310;SDS011;45078;51.654;21.250;2023-03-12T05:23:40;7.15;;;3.95;;
59310;SDS011;45078;51.654;21.250;2023-03-12T05:26:20;10.63;;;5.57;;
59310;SDS011;45078;51.654;21.250;2023-03-12T05:28:48;6.05;;;3.53;;
59310;SDS011;45078;51.654;21.250;2023-03-12T05:31:14;7.53;;;4.90;;
59310;SDS011;45078;51.654;21.250;2023-03-12T05:33:42;5.57;;;3.63;;
59310;SDS011;45078;51.654;21.250;2023-03-12T05:36:08;4.28;;;2.95;;
59310;SDS011;45078;51.654;21.250;2023-03-12T05:38:35;7.25;;;4.22;;
59310;SDS011;45078;51.654;21.250;2023-03-12T05:41:01;6.18;;;3.78;;
59310;SDS011;45078;51.654;21.250;2023-03-12T05:43:28;6.65;;;4.18;;
59310;SDS011;45078;51.654;21.250;2023-03-12T05:45:56;9.57;;;5.28;;
59310;SDS011;45078;51.654;21.250;2023-03-12T05:48:24;7.88;;;4.35;;
59310;SDS011;45078;51.654;21.250;2023-03-12T05:50:50;6.75;;;4.13;;
59310;SDS011;45078;51.654;21.250;2023-03-12T05:53:16;5.72;;;3.70;;
59310;SDS011;45078;51.654;21.250;2023-03-12T05:55:42;10.25;;;4.75;;
59310;SDS011;45078;51.654;21.250;2023-03-12T05:58:08;5.60;;;3.70;;
59310;SDS011;45078;51.654;21.250;2023-03-12T06:00:34;13.30;;;5.50;;
59310;SDS011;45078;51.654;21.250;2023-03-12T06:03:06;3.78;;;3.10;;
59310;SDS011;45078;51.654;21.250;2023-03-12T06:05:32;10.88;;;6.07;;
59310;SDS011;45078;51.654;21.250;2023-03-12T06:08:00;8.70;;;4.15;;
59310;SDS011;45078;51.654;21.250;2023-03-12T06:10:26;5.68;;;3.90;;
59310;SDS011;45078;51.654;21.250;2023-03-12T06:12:52;6.82;;;3.70;;
59310;SDS011;45078;51.654;21.250;2023-03-12T06:15:19;7.72;;;3.97;;
59310;SDS011;45078;51.654;21.250;2023-03-12T06:17:44;6.60;;;4.32;;
59310;SDS011;45078;51.654;21.250;2023-03-12T06:20:10;13.80;;;4.90;;
59310;SDS011;45078;51.654;21.250;2023-03-12T06:22:37;9.00;;;4.15;;
59310;SDS011;45078;51.654;21.250;2023-03-12T06:25:03;3.22;;;2.63;;
59310;SDS011;45078;51.654;21.250;2023-03-12T06:27:29;7.43;;;4.90;;
59310;SDS011;45078;51.654;21.250;2023-03-12T06:29:55;12.52;;;4.35;;
59310;SDS011;45078;51.654;21.250;2023-03-12T06:32:22;9.98;;;5.82;;
59310;SDS011;45078;51.654;21.250;2023-03-12T06:34:47;9.30;;;4.55;;
59310;SDS011;45078;51.654;21.250;2023-03-12T06:37:13;7.55;;;4.57;;
59310;SDS011;45078;51.654;21.250;2023-03-12T06:39:39;9.48;;;4.88;;
59310;SDS011;45078;51.654;21.250;2023-03-12T06:42:05;9.68;;;4.90;;
59310;SDS011;45078;51.654;21.250;2023-03-12T06:44:31;9.52;;;4.45;;
59310;SDS011;45078;51.654;21.250;2023-03-12T06:46:57;11.77;;;5.85;;
59310;SDS011;45078;51.654;21.250;2023-03-12T06:49:23;8.50;;;5.15;;
59310;SDS011;45078;51.654;21.250;2023-03-12T06:51:49;12.18;;;4.80;;
59310;SDS011;45078;51.654;21.250;2023-03-12T06:54:15;4.97;;;3.53;;
59310;SDS011;45078;51.654;21.250;2023-03-12T06:56:41;9.93;;;4.13;;
59310;SDS011;45078;51.654;21.250;2023-03-12T06:59:07;11.05;;;5.30;;
59310;SDS011;45078;51.654;21.250;2023-03-12T07:01:33;11.18;;;4.05;;
59310;SDS011;45078;51.654;21.250;2023-03-12T07:03:58;10.50;;;5.45;;
59310;SDS011;45078;51.654;21.250;2023-03-12T07:06:24;6.80;;;4.13;;
59310;SDS011;45078;51.654;21.250;2023-03-12T07:08:50;7.40;;;5.18;;
59310;SDS011;45078;51.654;21.250;2023-03-12T07:11:16;5.75;;;4.13;;
59310;SDS011;45078;51.654;21.250;2023-03-12T07:13:42;9.52;;;4.63;;
59310;SDS011;45078;51.654;21.250;2023-03-12T07:16:09;3.97;;;3.20;;
59310;SDS011;45078;51.654;21.250;2023-03-12T07:18:35;8.13;;;4.80;;
59310;SDS011;45078;51.654;21.250;2023-03-12T07:21:02;9.80;;;4.70;;
59310;SDS011;45078;51.654;21.250;2023-03-12T07:23:27;13.52;;;4.78;;
59310;SDS011;45078;51.654;21.250;2023-03-12T07:25:53;9.30;;;3.75;;
59310;SDS011;45078;51.654;21.250;2023-03-12T07:28:19;6.47;;;3.50;;
59310;SDS011;45078;51.654;21.250;2023-03-12T07:30:46;8.18;;;5.18;;
59310;SDS011;45078;51.654;21.250;2023-03-12T07:33:16;7.40;;;3.22;;
59310;SDS011;45078;51.654;21.250;2023-03-12T07:35:44;10.93;;;6.07;;
59310;SDS011;45078;51.654;21.250;2023-03-12T07:38:10;7.68;;;4.63;;
59310;SDS011;45078;51.654;21.250;2023-03-12T07:40:36;6.80;;;4.25;;
59310;SDS011;45078;51.654;21.250;2023-03-12T07:43:02;7.45;;;4.88;;
59310;SDS011;45078;51.654;21.250;2023-03-12T07:45:30;10.13;;;4.05;;
59310;SDS011;45078;51.654;21.250;2023-03-12T07:47:56;9.20;;;4.93;;
59310;SDS011;45078;51.654;21.250;2023-03-12T07:50:22;7.90;;;4.88;;
59310;SDS011;45078;51.654;21.250;2023-03-12T07:52:48;8.93;;;3.80;;
59310;SDS011;45078;51.654;21.250;2023-03-12T07:55:14;10.13;;;5.20;;
59310;SDS011;45078;51.654;21.250;2023-03-12T07:57:40;6.43;;;4.10;;
59310;SDS011;45078;51.654;21.250;2023-03-12T08:00:06;4.60;;;3.03;;
59310;SDS011;45078;51.654;21.250;2023-03-12T08:02:34;10.65;;;4.65;;
59310;SDS011;45078;51.654;21.250;2023-03-12T08:05:00;7.82;;;4.45;;
59310;SDS011;45078;51.654;21.250;2023-03-12T08:07:26;5.70;;;3.00;;
59310;SDS011;45078;51.654;21.250;2023-03-12T08:09:57;5.88;;;3.97;;
59310;SDS011;45078;51.654;21.250;2023-03-12T08:12:23;9.07;;;3.95;;
59310;SDS011;45078;51.654;21.250;2023-03-12T08:14:49;6.85;;;4.00;;
59310;SDS011;45078;51.654;21.250;2023-03-12T08:17:14;6.22;;;4.25;;
59310;SDS011;45078;51.654;21.250;2023-03-12T08:19:41;15.00;;;4.13;;
59310;SDS011;45078;51.654;21.250;2023-03-12T08:22:06;8.95;;;4.47;;
59310;SDS011;45078;51.654;21.250;2023-03-12T08:24:32;7.65;;;4.03;;
59310;SDS011;45078;51.654;21.250;2023-03-12T08:26:59;6.38;;;4.18;;
59310;SDS011;45078;51.654;21.250;2023-03-12T08:29:25;5.32;;;3.72;;
59310;SDS011;45078;51.654;21.250;2023-03-12T08:31:51;6.03;;;4.28;;
59310;SDS011;45078;51.654;21.250;2023-03-12T08:34:17;8.15;;;3.80;;
59310;SDS011;45078;51.654;21.250;2023-03-12T08:36:43;9.82;;;4.40;;
59310;SDS011;45078;51.654;21.250;2023-03-12T08:39:09;8.95;;;5.20;;
59310;SDS011;45078;51.654;21.250;2023-03-12T08:41:35;6.85;;;3.63;;
59310;SDS011;45078;51.654;21.250;2023-03-12T08:44:00;7.88;;;4.55;;
59310;SDS011;45078;51.654;21.250;2023-03-12T08:46:26;8.20;;;3.55;;
59310;SDS011;45078;51.654;21.250;2023-03-12T08:48:53;6.68;;;4.35;;
59310;SDS011;45078;51.654;21.250;2023-03-12T08:51:19;5.82;;;3.58;;
59310;SDS011;45078;51.654;21.250;2023-03-12T08:53:45;7.28;;;4.22;;
59310;SDS011;45078;51.654;21.250;2023-03-12T08:56:12;6.65;;;3.78;;
59310;SDS011;45078;51.654;21.250;2023-03-12T08:58:38;7.97;;;3.65;;
59310;SDS011;45078;51.654;21.250;2023-03-12T09:01:09;11.85;;;4.80;;
59310;SDS011;45078;51.654;21.250;2023-03-12T09:03:36;8.48;;;3.28;;
59310;SDS011;45078;51.654;21.250;2023-03-12T09:06:03;3.72;;;2.13;;
59310;SDS011;45078;51.654;21.250;2023-03-12T09:08:31;3.20;;;2.13;;
59310;SDS011;45078;51.654;21.250;2023-03-12T09:10:58;3.75;;;3.05;;
59310;SDS011;45078;51.654;21.250;2023-03-12T09:13:24;3.80;;;2.30;;
59310;SDS011;45078;51.654;21.250;2023-03-12T09:15:50;4.55;;;3.45;;
59310;SDS011;45078;51.654;21.250;2023-03-12T09:18:16;3.42;;;2.17;;
59310;SDS011;45078;51.654;21.250;2023-03-12T09:20:44;5.90;;;3.63;;
59310;SDS011;45078;51.654;21.250;2023-03-12T09:23:09;7.32;;;3.80;;
59310;SDS011;45078;51.654;21.250;2023-03-12T09:25:35;4.03;;;2.25;;
59310;SDS011;45078;51.654;21.250;2023-03-12T09:28:01;5.53;;;3.70;;
59310;SDS011;45078;51.654;21.250;2023-03-12T09:30:27;6.03;;;3.28;;
59310;SDS011;45078;51.654;21.250;2023-03-12T09:32:54;5.47;;;3.40;;
59310;SDS011;45078;51.654;21.250;2023-03-12T09:35:20;5.43;;;3.60;;
59310;SDS011;45078;51.654;21.250;2023-03-12T09:37:49;7.50;;;3.88;;
59310;SDS011;45078;51.654;21.250;2023-03-12T09:40:16;5.22;;;2.95;;
59310;SDS011;45078;51.654;21.250;2023-03-12T09:42:47;6.32;;;3.88;;
59310;SDS011;45078;51.654;21.250;2023-03-12T09:45:20;8.82;;;3.35;;
59310;SDS011;45078;51.654;21.250;2023-03-12T09:47:50;3.90;;;2.67;;
59310;SDS011;45078;51.654;21.250;2023-03-12T09:50:22;6.60;;;2.88;;
59310;SDS011;45078;51.654;21.250;2023-03-12T09:53:01;5.75;;;2.40;;
59310;SDS011;45078;51.654;21.250;2023-03-12T09:55:31;2.45;;;1.92;;
59310;SDS011;45078;51.654;21.250;2023-03-12T09:58:02;4.72;;;2.78;;
59310;SDS011;45078;51.654;21.250;2023-03-12T10:00:29;4.05;;;2.13;;
59310;SDS011;45078;51.654;21.250;2023-03-12T10:03:03;3.20;;;2.08;;
59310;SDS011;45078;51.654;21.250;2023-03-12T10:05:35;6.65;;;2.40;;
59310;SDS011;45078;51.654;21.250;2023-03-12T10:16:41;3.78;;;1.85;;
59310;SDS011;45078;51.654;21.250;2023-03-12T10:26:49;6.50;;;1.48;;
59310;SDS011;45078;51.654;21.250;2023-03-12T10:29:17;2.42;;;1.33;;
59310;SDS011;45078;51.654;21.250;2023-03-12T10:39:55;5.67;;;1.40;;
59310;SDS011;45078;51.654;21.250;2023-03-12T10:42:25;5.28;;;1.50;;
59310;SDS011;45078;51.654;21.250;2023-03-12T10:44:55;1.92;;;1.35;;
59310;SDS011;45078;51.654;21.250;2023-03-12T10:52:51;6.55;;;1.67;;
59310;SDS011;45078;51.654;21.250;2023-03-12T10:55:35;3.95;;;1.70;;
59310;SDS011;45078;51.654;21.250;2023-03-12T10:58:01;2.80;;;1.38;;
59310;SDS011;45078;51.654;21.250;2023-03-12T11:00:28;3.67;;;1.52;;
59310;SDS011;45078;51.654;21.250;2023-03-12T11:08:29;3.47;;;1.48;;
59310;SDS011;45078;51.654;21.250;2023-03-12T11:10:57;5.15;;;1.50;;
59310;SDS011;45078;51.654;21.250;2023-03-12T11:21:30;1.70;;;1.08;;
59310;SDS011;45078;51.654;21.250;2023-03-12T11:26:26;3.13;;;1.63;;
59310;SDS011;45078;51.654;21.250;2023-03-12T11:29:02;3.25;;;1.55;;
59310;SDS011;45078;51.654;21.250;2023-03-12T11:31:54;2.65;;;1.73;;
59310;SDS011;45078;51.654;21.250;2023-03-12T11:34:31;1.67;;;1.10;;
59310;SDS011;45078;51.654;21.250;2023-03-12T11:37:03;2.17;;;1.35;;
59310;SDS011;45078;51.654;21.250;2023-03-12T11:48:36;3.35;;;1.58;;
59310;SDS011;45078;51.654;21.250;2023-03-12T11:54:24;2.45;;;1.35;;
59310;SDS011;45078;51.654;21.250;2023-03-12T11:59:57;3.78;;;1.85;;
59310;SDS011;45078;51.654;21.250;2023-03-12T12:05:24;1.83;;;1.02;;
59310;SDS011;45078;51.654;21.250;2023-03-12T12:18:54;4.20;;;1.90;;
59310;SDS011;45078;51.654;21.250;2023-03-12T12:32:37;6.30;;;1.80;;
59310;SDS011;45078;51.654;21.250;2023-03-12T12:35:41;3.63;;;1.40;;
59310;SDS011;45078;51.654;21.250;2023-03-12T12:40:52;3.08;;;1.80;;
59310;SDS011;45078;51.654;21.250;2023-03-12T12:43:36;7.00;;;3.90;;
59310;SDS011;45078;51.654;21.250;2023-03-12T12:46:05;2.97;;;1.40;;
59310;SDS011;45078;51.654;21.250;2023-03-12T12:51:25;3.58;;;1.40;;
59310;SDS011;45078;51.654;21.250;2023-03-12T12:57:10;7.43;;;1.10;;
59310;SDS011;45078;51.654;21.250;2023-03-12T13:02:35;2.42;;;1.42;;
59310;SDS011;45078;51.654;21.250;2023-03-12T13:05:16;2.83;;;1.42;;
59310;SDS011;45078;51.654;21.250;2023-03-12T13:07:44;1.23;;;1.00;;
59310;SDS011;45078;51.654;21.250;2023-03-12T13:12:58;1.20;;;0.95;;
59310;SDS011;45078;51.654;21.250;2023-03-12T13:20:32;5.13;;;1.55;;
59310;SDS011;45078;51.654;21.250;2023-03-12T13:23:02;2.28;;;1.40;;
59310;SDS011;45078;51.654;21.250;2023-03-12T13:28:34;3.65;;;1.85;;
59310;SDS011;45078;51.654;21.250;2023-03-12T13:36:45;4.78;;;1.80;;
59310;SDS011;45078;51.654;21.250;2023-03-12T13:41:41;8.05;;;2.60;;
59310;SDS011;45078;51.654;21.250;2023-03-12T13:49:44;4.10;;;1.85;;
59310;SDS011;45078;51.654;21.250;2023-03-12T13:55:06;3.28;;;1.50;;
59310;SDS011;45078;51.654;21.250;2023-03-12T14:05:43;3.13;;;1.55;;
59310;SDS011;45078;51.654;21.250;2023-03-12T14:16:49;3.53;;;1.63;;
59310;SDS011;45078;51.654;21.250;2023-03-12T14:19:24;4.77;;;1.63;;
59310;SDS011;45078;51.654;21.250;2023-03-12T14:21:52;4.40;;;2.10;;
59310;SDS011;45078;51.654;21.250;2023-03-12T14:27:01;3.25;;;1.50;;
59310;SDS011;45078;51.654;21.250;2023-03-12T14:32:22;3.97;;;1.90;;
59310;SDS011;45078;51.654;21.250;2023-03-12T14:37:44;9.88;;;2.33;;
59310;SDS011;45078;51.654;21.250;2023-03-12T14:43:37;5.40;;;2.15;;
59310;SDS011;45078;51.654;21.250;2023-03-12T14:46:12;3.85;;;1.60;;
59310;SDS011;45078;51.654;21.250;2023-03-12T14:48:41;4.68;;;1.92;;
59310;SDS011;45078;51.654;21.250;2023-03-12T14:51:15;4.75;;;1.88;;
59310;SDS011;45078;51.654;21.250;2023-03-12T14:53:45;4.20;;;1.90;;
59310;SDS011;45078;51.654;21.250;2023-03-12T14:56:13;5.60;;;1.70;;
59310;SDS011;45078;51.654;21.250;2023-03-12T14:58:51;5.28;;;1.90;;
59310;SDS011;45078;51.654;21.250;2023-03-12T15:01:20;4.10;;;1.80;;
59310;SDS011;45078;51.654;21.250;2023-03-12T15:03:58;8.27;;;1.90;;
59310;SDS011;45078;51.654;21.250;2023-03-12T15:06:30;3.63;;;1.50;;
59310;SDS011;45078;51.654;21.250;2023-03-12T15:09:04;4.88;;;1.67;;
59310;SDS011;45078;51.654;21.250;2023-03-12T15:11:32;3.95;;;1.77;;
59310;SDS011;45078;51.654;21.250;2023-03-12T15:14:04;4.80;;;1.60;;
59310;SDS011;45078;51.654;21.250;2023-03-12T15:16:33;3.63;;;1.83;;
59310;SDS011;45078;51.654;21.250;2023-03-12T15:19:00;4.90;;;1.92;;
59310;SDS011;45078;51.654;21.250;2023-03-12T15:21:28;3.50;;;1.70;;
59310;SDS011;45078;51.654;21.250;2023-03-12T15:23:57;3.40;;;1.75;;
59310;SDS011;45078;51.654;21.250;2023-03-12T15:31:50;4.20;;;2.00;;
59310;SDS011;45078;51.654;21.250;2023-03-12T15:37:48;2.95;;;1.92;;
59310;SDS011;45078;51.654;21.250;2023-03-12T15:40:15;2.20;;;1.40;;
59310;SDS011;45078;51.654;21.250;2023-03-12T15:42:45;3.15;;;1.77;;
59310;SDS011;45078;51.654;21.250;2023-03-12T15:45:54;6.32;;;1.85;;
59310;SDS011;45078;51.654;21.250;2023-03-12T15:50:51;2.00;;;1.50;;
59310;SDS011;45078;51.654;21.250;2023-03-12T15:56:04;3.72;;;1.58;;
59310;SDS011;45078;51.654;21.250;2023-03-12T15:58:33;2.90;;;1.70;;
59310;SDS011;45078;51.654;21.250;2023-03-12T16:01:09;3.00;;;1.80;;
59310;SDS011;45078;51.654;21.250;2023-03-12T16:03:40;6.13;;;2.58;;
59310;SDS011;45078;51.654;21.250;2023-03-12T16:06:22;3.55;;;2.03;;
59310;SDS011;45078;51.654;21.250;2023-03-12T16:08:53;3.05;;;1.65;;
59310;SDS011;45078;51.654;21.250;2023-03-12T16:11:25;2.97;;;1.70;;
59310;SDS011;45078;51.654;21.250;2023-03-12T16:14:01;5.15;;;2.00;;
59310;SDS011;45078;51.654;21.250;2023-03-12T16:16:39;6.25;;;1.90;;
59310;SDS011;45078;51.654;21.250;2023-03-12T16:19:13;2.72;;;1.80;;
59310;SDS011;45078;51.654;21.250;2023-03-12T16:21:40;2.67;;;1.80;;
59310;SDS011;45078;51.654;21.250;2023-03-12T16:24:07;4.00;;;2.13;;
59310;SDS011;45078;51.654;21.250;2023-03-12T16:26:33;4.03;;;1.70;;
59310;SDS011;45078;51.654;21.250;2023-03-12T16:29:03;3.83;;;1.92;;
59310;SDS011;45078;51.654;21.250;2023-03-12T16:31:29;9.48;;;2.10;;
59310;SDS011;45078;51.654;21.250;2023-03-12T16:33:55;3.78;;;2.05;;
59310;SDS011;45078;51.654;21.250;2023-03-12T16:36:21;5.28;;;2.22;;
59310;SDS011;45078;51.654;21.250;2023-03-12T16:38:47;4.72;;;2.28;;
59310;SDS011;45078;51.654;21.250;2023-03-12T16:41:13;5.07;;;1.83;;
59310;SDS011;45078;51.654;21.250;2023-03-12T16:43:42;3.53;;;1.90;;
59310;SDS011;45078;51.654;21.250;2023-03-12T16:46:13;6.68;;;2.08;;
59310;SDS011;45078;51.654;21.250;2023-03-12T16:48:43;4.38;;;2.00;;
59310;SDS011;45078;51.654;21.250;2023-03-12T16:51:13;6.60;;;2.35;;
59310;SDS011;45078;51.654;21.250;2023-03-12T16:53:40;3.90;;;1.83;;
59310;SDS011;45078;51.654;21.250;2023-03-12T16:56:09;5.78;;;2.33;;
59310;SDS011;45078;51.654;21.250;2023-03-12T16:58:43;4.28;;;2.15;;
59310;SDS011;45078;51.654;21.250;2023-03-12T17:01:13;3.38;;;2.10;;
59310;SDS011;45078;51.654;21.250;2023-03-12T17:03:43;3.78;;;2.15;;
59310;SDS011;45078;51.654;21.250;2023-03-12T17:06:23;3.65;;;1.90;;
59310;SDS011;45078;51.654;21.250;2023-03-12T17:08:50;5.50;;;1.55;;
59310;SDS011;45078;51.654;21.250;2023-03-12T17:11:21;7.53;;;2.30;;
59310;SDS011;45078;51.654;21.250;2023-03-12T17:16:21;5.15;;;1.92;;
59310;SDS011;45078;51.654;21.250;2023-03-12T17:18:48;6.75;;;1.92;;
59310;SDS011;45078;51.654;21.250;2023-03-12T17:21:15;7.80;;;2.22;;
59310;SDS011;45078;51.654;21.250;2023-03-12T17:23:42;7.43;;;2.38;;
59310;SDS011;45078;51.654;21.250;2023-03-12T17:26:10;3.83;;;2.28;;
59310;SDS011;45078;51.654;21.250;2023-03-12T17:28:36;13.27;;;3.67;;
59310;SDS011;45078;51.654;21.250;2023-03-12T17:31:02;7.55;;;2.83;;
59310;SDS011;45078;51.654;21.250;2023-03-12T17:33:29;10.18;;;3.10;;
59310;SDS011;45078;51.654;21.250;2023-03-12T17:35:58;6.80;;;2.70;;
59310;SDS011;45078;51.654;21.250;2023-03-12T17:38:27;6.57;;;3.15;;